sensor_id;sensor_type;location;lat;lon;timestamp;P1;durP1;ratioP1;P2;durP2;ratioP2
3343;SDS011;1685;53.104;8.228;2024-03-17T00:00:15;15.30;;;5.80;;
3343;SDS011;1685;53.104;8.228;2024-03-17T00:02:43;15.00;;;5.47;;
3343;SDS011;1685;53.104;8.228;2024-03-17T00:05:09;11.40;;;4.43;;
3343;SDS011;1685;53.104;8.228;2024-03-17T00:07:38;8.67;;;5.20;;
3343;SDS011;1685;53.104;8.228;2024-03-17T00:10:04;17.63;;;5.90;;
3343;SDS011;1685;53.104;8.228;2024-03-17T00:12:32;16.20;;;5.27;;
3343;SDS011;1685;53.104;8.228;2024-03-17T00:14:58;8.83;;;4.83;;
3343;SDS011;1685;53.104;8.228;2024-03-17T00:17:25;14.10;;;5.50;;
3343;SDS011;1685;53.104;8.228;2024-03-17T00:19:51;12.43;;;4.97;;
3343;SDS011;1685;53.104;8.228;2024-03-17T00:22:18;14.63;;;5.50;;
3343;SDS011;1685;53.104;8.228;2024-03-17T00:24:46;10.60;;;4.87;;
3343;SDS011;1685;53.104;8.228;2024-03-17T00:27:13;22.20;;;5.63;;
3343;SDS011;1685;53.104;8.228;2024-03-17T00:29:39;16.67;;;5.60;;
3343;SDS011;1685;53.104;8.228;2024-03-17T00:32:06;11.20;;;4.63;;
3343;SDS011;1685;53.104;8.228;2024-03-17T00:34:32;9.80;;;5.77;;
3343;SDS011;1685;53.104;8.228;2024-03-17T00:36:59;7.60;;;4.47;;
3343;SDS011;1685;53.104;8.228;2024-03-17T00:39:27;15.23;;;5.30;;
3343;SDS011;1685;53.104;8.228;2024-03-17T00:41:55;19.53;;;5.27;;
3343;SDS011;1685;53.104;8.228;2024-03-17T00:44:22;7.63;;;4.97;;
3343;SDS011;1685;53.104;8.228;2024-03-17T00:46:48;20.23;;;5.40;;
3343;SDS011;1685;53.104;8.228;2024-03-17T00:49:15;13.70;;;6.40;;
3343;SDS011;1685;53.104;8.228;2024-03-17T00:51:42;12.70;;;4.90;;
3343;SDS011;1685;53.104;8.228;2024-03-17T00:54:09;10.30;;;4.47;;
3343;SDS011;1685;53.104;8.228;2024-03-17T00:56:35;10.83;;;5.60;;
3343;SDS011;1685;53.104;8.228;2024-03-17T00:59:03;14.00;;;4.97;;
3343;SDS011;1685;53.104;8.228;2024-03-17T01:01:29;7.17;;;4.80;;
3343;SDS011;1685;53.104;8.228;2024-03-17T01:03:56;12.17;;;4.50;;
3343;SDS011;1685;53.104;8.228;2024-03-17T01:06:23;7.00;;;4.20;;
3343;SDS011;1685;53.104;8.228;2024-03-17T01:08:50;13.80;;;4.17;;
3343;SDS011;1685;53.104;8.228;2024-03-17T01:11:17;14.73;;;4.20;;
3343;SDS011;1685;53.104;8.228;2024-03-17T01:13:44;9.50;;;3.60;;
3343;SDS011;1685;53.104;8.228;2024-03-17T01:16:12;10.23;;;4.67;;
3343;SDS011;1685;53.104;8.228;2024-03-17T01:18:39;15.77;;;5.53;;
3343;SDS011;1685;53.104;8.228;2024-03-17T01:21:06;11.03;;;4.43;;
3343;SDS011;1685;53.104;8.228;2024-03-17T01:23:33;28.67;;;5.23;;
3343;SDS011;1685;53.104;8.228;2024-03-17T01:26:00;14.47;;;4.30;;
3343;SDS011;1685;53.104;8.228;2024-03-17T01:28:27;11.30;;;4.87;;
3343;SDS011;1685;53.104;8.228;2024-03-17T01:30:53;16.03;;;4.40;;
3343;SDS011;1685;53.104;8.228;2024-03-17T01:33:22;10.30;;;4.90;;
3343;SDS011;1685;53.104;8.228;2024-03-17T01:35:47;9.77;;;4.67;;
3343;SDS011;1685;53.104;8.228;2024-03-17T01:38:15;10.27;;;4.30;;
3343;SDS011;1685;53.104;8.228;2024-03-17T01:40:41;11.37;;;4.57;;
3343;SDS011;1685;53.104;8.228;2024-03-17T01:43:09;12.33;;;4.30;;
3343;SDS011;1685;53.104;8.228;2024-03-17T01:45:36;9.57;;;3.70;;
3343;SDS011;1685;53.104;8.228;2024-03-17T01:48:03;8.50;;;4.57;;
3343;SDS011;1685;53.104;8.228;2024-03-17T01:50:41;13.13;;;4.33;;
3343;SDS011;1685;53.104;8.228;2024-03-17T01:53:09;19.00;;;4.47;;
3343;SDS011;1685;53.104;8.228;2024-03-17T01:55:38;10.83;;;5.23;;
3343;SDS011;1685;53.104;8.228;2024-03-17T01:58:07;20.67;;;5.07;;
3343;SDS011;1685;53.104;8.228;2024-03-17T02:00:35;7.00;;;4.03;;
3343;SDS011;1685;53.104;8.228;2024-03-17T02:03:02;15.30;;;4.40;;
3343;SDS011;1685;53.104;8.228;2024-03-17T02:05:29;12.60;;;4.47;;
3343;SDS011;1685;53.104;8.228;2024-03-17T02:07:57;7.50;;;4.20;;
3343;SDS011;1685;53.104;8.228;2024-03-17T02:10:23;13.63;;;3.90;;
3343;SDS011;1685;53.104;8.228;2024-03-17T02:12:50;12.30;;;3.57;;
3343;SDS011;1685;53.104;8.228;2024-03-17T02:15:17;13.63;;;5.07;;
3343;SDS011;1685;53.104;8.228;2024-03-17T02:17:44;14.63;;;4.90;;
3343;SDS011;1685;53.104;8.228;2024-03-17T02:20:11;11.73;;;5.20;;
3343;SDS011;1685;53.104;8.228;2024-03-17T02:22:40;13.87;;;4.50;;
3343;SDS011;1685;53.104;8.228;2024-03-17T02:25:07;5.47;;;4.87;;
3343;SDS011;1685;53.104;8.228;2024-03-17T02:27:33;8.20;;;4.33;;
3343;SDS011;1685;53.104;8.228;2024-03-17T02:30:00;9.27;;;4.57;;
3343;SDS011;1685;53.104;8.228;2024-03-17T02:32:26;6.23;;;3.80;;
3343;SDS011;1685;53.104;8.228;2024-03-17T02:34:54;9.70;;;4.13;;
3343;SDS011;1685;53.104;8.228;2024-03-17T02:37:21;7.07;;;3.77;;
3343;SDS011;1685;53.104;8.228;2024-03-17T02:39:50;11.00;;;4.30;;
3343;SDS011;1685;53.104;8.228;2024-03-17T02:42:16;14.03;;;4.47;;
3343;SDS011;1685;53.104;8.228;2024-03-17T02:44:43;11.20;;;4.30;;
3343;SDS011;1685;53.104;8.228;2024-03-17T02:47:10;9.33;;;4.03;;
3343;SDS011;1685;53.104;8.228;2024-03-17T02:49:39;17.60;;;5.83;;
3343;SDS011;1685;53.104;8.228;2024-03-17T02:52:09;9.37;;;4.53;;
3343;SDS011;1685;53.104;8.228;2024-03-17T02:54:37;7.33;;;4.40;;
3343;SDS011;1685;53.104;8.228;2024-03-17T02:57:06;11.97;;;3.90;;
3343;SDS011;1685;53.104;8.228;2024-03-17T02:59:33;9.37;;;4.00;;
3343;SDS011;1685;53.104;8.228;2024-03-17T03:02:00;9.97;;;5.10;;
3343;SDS011;1685;53.104;8.228;2024-03-17T03:04:27;17.57;;;5.90;;
3343;SDS011;1685;53.104;8.228;2024-03-17T03:06:54;12.40;;;4.33;;
3343;SDS011;1685;53.104;8.228;2024-03-17T03:09:22;11.27;;;4.40;;
3343;SDS011;1685;53.104;8.228;2024-03-17T03:11:56;9.50;;;4.50;;
3343;SDS011;1685;53.104;8.228;2024-03-17T03:14:25;9.90;;;4.40;;
3343;SDS011;1685;53.104;8.228;2024-03-17T03:16:51;12.43;;;4.30;;
3343;SDS011;1685;53.104;8.228;2024-03-17T03:19:19;10.43;;;4.80;;
3343;SDS011;1685;53.104;8.228;2024-03-17T03:21:46;9.47;;;4.43;;
3343;SDS011;1685;53.104;8.228;2024-03-17T03:24:14;10.60;;;4.90;;
3343;SDS011;1685;53.104;8.228;2024-03-17T03:26:41;18.37;;;4.53;;
3343;SDS011;1685;53.104;8.228;2024-03-17T03:29:08;11.97;;;4.80;;
3343;SDS011;1685;53.104;8.228;2024-03-17T03:31:37;9.47;;;3.90;;
3343;SDS011;1685;53.104;8.228;2024-03-17T03:34:05;15.60;;;4.63;;
3343;SDS011;1685;53.104;8.228;2024-03-17T03:36:33;15.73;;;5.30;;
3343;SDS011;1685;53.104;8.228;2024-03-17T03:39:00;13.80;;;4.10;;
3343;SDS011;1685;53.104;8.228;2024-03-17T03:41:29;8.33;;;4.23;;
3343;SDS011;1685;53.104;8.228;2024-03-17T03:43:56;17.60;;;4.60;;
3343;SDS011;1685;53.104;8.228;2024-03-17T03:46:23;15.83;;;5.60;;
3343;SDS011;1685;53.104;8.228;2024-03-17T03:48:53;6.10;;;4.50;;
3343;SDS011;1685;53.104;8.228;2024-03-17T03:51:20;15.60;;;4.87;;
3343;SDS011;1685;53.104;8.228;2024-03-17T03:53:47;11.10;;;5.40;;
3343;SDS011;1685;53.104;8.228;2024-03-17T03:56:14;8.13;;;4.80;;
3343;SDS011;1685;53.104;8.228;2024-03-17T03:58:41;10.70;;;4.37;;
3343;SDS011;1685;53.104;8.228;2024-03-17T04:01:11;11.47;;;4.60;;
3343;SDS011;1685;53.104;8.228;2024-03-17T04:03:40;16.10;;;5.47;;
3343;SDS011;1685;53.104;8.228;2024-03-17T04:06:09;11.90;;;4.90;;
3343;SDS011;1685;53.104;8.228;2024-03-17T04:08:38;8.47;;;4.30;;
3343;SDS011;1685;53.104;8.228;2024-03-17T04:11:06;10.63;;;5.10;;
3343;SDS011;1685;53.104;8.228;2024-03-17T04:13:33;6.30;;;4.67;;
3343;SDS011;1685;53.104;8.228;2024-03-17T04:16:03;7.47;;;4.17;;
3343;SDS011;1685;53.104;8.228;2024-03-17T04:18:31;9.00;;;4.90;;
3343;SDS011;1685;53.104;8.228;2024-03-17T04:21:00;7.90;;;4.77;;
3343;SDS011;1685;53.104;8.228;2024-03-17T04:23:29;8.47;;;3.80;;
3343;SDS011;1685;53.104;8.228;2024-03-17T04:25:57;10.90;;;5.93;;
3343;SDS011;1685;53.104;8.228;2024-03-17T04:28:24;8.20;;;4.43;;
3343;SDS011;1685;53.104;8.228;2024-03-17T04:30:51;8.00;;;4.60;;
3343;SDS011;1685;53.104;8.228;2024-03-17T04:33:19;10.00;;;5.17;;
3343;SDS011;1685;53.104;8.228;2024-03-17T04:35:46;7.93;;;6.20;;
3343;SDS011;1685;53.104;8.228;2024-03-17T04:38:13;12.33;;;4.50;;
3343;SDS011;1685;53.104;8.228;2024-03-17T04:40:42;9.30;;;4.57;;
3343;SDS011;1685;53.104;8.228;2024-03-17T04:43:09;12.60;;;4.30;;
3343;SDS011;1685;53.104;8.228;2024-03-17T04:45:36;7.43;;;4.20;;
3343;SDS011;1685;53.104;8.228;2024-03-17T04:48:04;10.90;;;5.30;;
3343;SDS011;1685;53.104;8.228;2024-03-17T04:50:32;4.13;;;3.63;;
3343;SDS011;1685;53.104;8.228;2024-03-17T04:53:00;6.70;;;5.67;;
3343;SDS011;1685;53.104;8.228;2024-03-17T04:55:27;11.30;;;5.10;;
3343;SDS011;1685;53.104;8.228;2024-03-17T04:57:56;11.10;;;5.00;;
3343;SDS011;1685;53.104;8.228;2024-03-17T05:00:23;10.20;;;6.17;;
3343;SDS011;1685;53.104;8.228;2024-03-17T05:02:50;6.97;;;5.33;;
3343;SDS011;1685;53.104;8.228;2024-03-17T05:05:18;7.57;;;5.10;;
3343;SDS011;1685;53.104;8.228;2024-03-17T05:07:46;32.93;;;4.07;;
3343;SDS011;1685;53.104;8.228;2024-03-17T05:10:13;9.90;;;4.73;;
3343;SDS011;1685;53.104;8.228;2024-03-17T05:12:40;7.93;;;4.53;;
3343;SDS011;1685;53.104;8.228;2024-03-17T05:15:09;10.93;;;4.97;;
3343;SDS011;1685;53.104;8.228;2024-03-17T05:17:36;10.80;;;4.07;;
3343;SDS011;1685;53.104;8.228;2024-03-17T05:20:03;9.70;;;4.40;;
3343;SDS011;1685;53.104;8.228;2024-03-17T05:22:33;12.90;;;5.27;;
3343;SDS011;1685;53.104;8.228;2024-03-17T05:25:00;6.53;;;4.20;;
3343;SDS011;1685;53.104;8.228;2024-03-17T05:27:27;10.00;;;5.30;;
3343;SDS011;1685;53.104;8.228;2024-03-17T05:29:55;7.17;;;4.47;;
3343;SDS011;1685;53.104;8.228;2024-03-17T05:32:24;8.90;;;4.80;;
3343;SDS011;1685;53.104;8.228;2024-03-17T05:34:51;7.50;;;4.43;;
3343;SDS011;1685;53.104;8.228;2024-03-17T05:37:17;7.37;;;3.97;;
3343;SDS011;1685;53.104;8.228;2024-03-17T05:39:45;15.13;;;4.47;;
3343;SDS011;1685;53.104;8.228;2024-03-17T05:42:12;12.20;;;4.37;;
3343;SDS011;1685;53.104;8.228;2024-03-17T05:44:39;7.33;;;4.47;;
3343;SDS011;1685;53.104;8.228;2024-03-17T05:47:16;10.73;;;4.20;;
3343;SDS011;1685;53.104;8.228;2024-03-17T05:49:44;8.73;;;4.30;;
3343;SDS011;1685;53.104;8.228;2024-03-17T05:52:11;7.63;;;4.33;;
3343;SDS011;1685;53.104;8.228;2024-03-17T05:54:38;5.40;;;4.00;;
3343;SDS011;1685;53.104;8.228;2024-03-17T05:57:06;11.00;;;4.53;;
3343;SDS011;1685;53.104;8.228;2024-03-17T05:59:34;5.20;;;3.83;;
3343;SDS011;1685;53.104;8.228;2024-03-17T06:02:01;11.83;;;5.03;;
3343;SDS011;1685;53.104;8.228;2024-03-17T06:04:28;9.87;;;5.13;;
3343;SDS011;1685;53.104;8.228;2024-03-17T06:06:56;13.03;;;5.17;;
3343;SDS011;1685;53.104;8.228;2024-03-17T06:09:23;11.30;;;4.30;;
3343;SDS011;1685;53.104;8.228;2024-03-17T06:11:50;19.53;;;5.70;;
3343;SDS011;1685;53.104;8.228;2024-03-17T06:14:17;7.23;;;4.40;;
3343;SDS011;1685;53.104;8.228;2024-03-17T06:16:44;10.40;;;4.93;;
3343;SDS011;1685;53.104;8.228;2024-03-17T06:19:12;9.67;;;4.87;;
3343;SDS011;1685;53.104;8.228;2024-03-17T06:21:39;14.43;;;5.70;;
3343;SDS011;1685;53.104;8.228;2024-03-17T06:24:08;11.83;;;4.90;;
3343;SDS011;1685;53.104;8.228;2024-03-17T06:26:36;15.03;;;6.57;;
3343;SDS011;1685;53.104;8.228;2024-03-17T06:29:03;8.50;;;4.87;;
3343;SDS011;1685;53.104;8.228;2024-03-17T06:31:30;12.10;;;5.40;;
3343;SDS011;1685;53.104;8.228;2024-03-17T06:33:57;17.47;;;6.10;;
3343;SDS011;1685;53.104;8.228;2024-03-17T06:36:24;14.73;;;5.00;;
3343;SDS011;1685;53.104;8.228;2024-03-17T06:38:52;12.37;;;5.10;;
3343;SDS011;1685;53.104;8.228;2024-03-17T06:41:20;12.87;;;5.70;;
3343;SDS011;1685;53.104;8.228;2024-03-17T06:43:48;14.80;;;5.80;;
3343;SDS011;1685;53.104;8.228;2024-03-17T06:46:15;10.73;;;6.03;;
3343;SDS011;1685;53.104;8.228;2024-03-17T06:48:42;18.93;;;6.23;;
3343;SDS011;1685;53.104;8.228;2024-03-17T06:51:10;14.13;;;6.17;;
3343;SDS011;1685;53.104;8.228;2024-03-17T06:53:37;18.83;;;6.80;;
3343;SDS011;1685;53.104;8.228;2024-03-17T06:56:04;17.40;;;6.67;;
3343;SDS011;1685;53.104;8.228;2024-03-17T06:58:33;17.83;;;7.07;;
3343;SDS011;1685;53.104;8.228;2024-03-17T07:01:00;22.43;;;7.00;;
3343;SDS011;1685;53.104;8.228;2024-03-17T07:03:28;14.23;;;7.43;;
3343;SDS011;1685;53.104;8.228;2024-03-17T07:05:56;40.27;;;8.90;;
3343;SDS011;1685;53.104;8.228;2024-03-17T07:08:24;10.60;;;6.23;;
3343;SDS011;1685;53.104;8.228;2024-03-17T07:10:55;15.03;;;7.80;;
3343;SDS011;1685;53.104;8.228;2024-03-17T07:13:28;17.00;;;7.17;;
3343;SDS011;1685;53.104;8.228;2024-03-17T07:15:56;15.87;;;8.07;;
3343;SDS011;1685;53.104;8.228;2024-03-17T07:18:24;12.17;;;6.93;;
3343;SDS011;1685;53.104;8.228;2024-03-17T07:20:52;15.33;;;6.90;;
3343;SDS011;1685;53.104;8.228;2024-03-17T07:23:19;13.27;;;6.90;;
3343;SDS011;1685;53.104;8.228;2024-03-17T07:25:52;20.27;;;7.00;;
3343;SDS011;1685;53.104;8.228;2024-03-17T07:28:20;17.60;;;7.43;;
3343;SDS011;1685;53.104;8.228;2024-03-17T07:30:47;9.67;;;5.93;;
3343;SDS011;1685;53.104;8.228;2024-03-17T07:33:16;11.03;;;5.93;;
3343;SDS011;1685;53.104;8.228;2024-03-17T07:35:48;22.03;;;6.70;;
3343;SDS011;1685;53.104;8.228;2024-03-17T07:38:15;15.83;;;5.90;;
3343;SDS011;1685;53.104;8.228;2024-03-17T07:40:43;12.30;;;6.10;;
3343;SDS011;1685;53.104;8.228;2024-03-17T07:43:10;15.40;;;5.37;;
3343;SDS011;1685;53.104;8.228;2024-03-17T07:45:37;15.10;;;4.80;;
3343;SDS011;1685;53.104;8.228;2024-03-17T07:48:04;9.23;;;4.17;;
3343;SDS011;1685;53.104;8.228;2024-03-17T07:50:33;10.27;;;4.47;;
3343;SDS011;1685;53.104;8.228;2024-03-17T07:53:00;14.00;;;5.13;;
3343;SDS011;1685;53.104;8.228;2024-03-17T07:55:28;9.20;;;3.90;;
3343;SDS011;1685;53.104;8.228;2024-03-17T07:57:56;19.33;;;3.77;;
3343;SDS011;1685;53.104;8.228;2024-03-17T08:00:23;10.73;;;4.00;;
3343;SDS011;1685;53.104;8.228;2024-03-17T08:02:51;9.77;;;3.47;;
3343;SDS011;1685;53.104;8.228;2024-03-17T08:05:18;11.63;;;3.40;;
3343;SDS011;1685;53.104;8.228;2024-03-17T08:07:47;10.53;;;3.33;;
3343;SDS011;1685;53.104;8.228;2024-03-17T08:10:14;6.63;;;3.20;;
3343;SDS011;1685;53.104;8.228;2024-03-17T08:12:42;17.70;;;3.80;;
3343;SDS011;1685;53.104;8.228;2024-03-17T08:15:10;12.37;;;3.30;;
3343;SDS011;1685;53.104;8.228;2024-03-17T08:17:37;12.63;;;2.40;;
3343;SDS011;1685;53.104;8.228;2024-03-17T08:20:05;8.07;;;2.70;;
3343;SDS011;1685;53.104;8.228;2024-03-17T08:22:32;10.07;;;3.30;;
3343;SDS011;1685;53.104;8.228;2024-03-17T08:25:01;7.03;;;2.37;;
3343;SDS011;1685;53.104;8.228;2024-03-17T08:27:29;15.27;;;3.30;;
3343;SDS011;1685;53.104;8.228;2024-03-17T08:29:57;10.77;;;2.30;;
3343;SDS011;1685;53.104;8.228;2024-03-17T08:32:24;7.77;;;2.87;;
3343;SDS011;1685;53.104;8.228;2024-03-17T08:34:51;13.90;;;2.90;;
3343;SDS011;1685;53.104;8.228;2024-03-17T08:37:19;8.80;;;2.87;;
3343;SDS011;1685;53.104;8.228;2024-03-17T08:39:46;6.33;;;2.77;;
3343;SDS011;1685;53.104;8.228;2024-03-17T08:42:14;6.50;;;2.43;;
3343;SDS011;1685;53.104;8.228;2024-03-17T08:44:42;8.43;;;2.80;;
3343;SDS011;1685;53.104;8.228;2024-03-17T08:47:12;7.73;;;3.23;;
3343;SDS011;1685;53.104;8.228;2024-03-17T08:49:39;10.63;;;2.43;;
3343;SDS011;1685;53.104;8.228;2024-03-17T08:52:06;13.83;;;3.10;;
3343;SDS011;1685;53.104;8.228;2024-03-17T08:54:33;10.60;;;2.50;;
3343;SDS011;1685;53.104;8.228;2024-03-17T08:57:01;9.90;;;2.20;;
3343;SDS011;1685;53.104;8.228;2024-03-17T08:59:29;7.07;;;2.07;;
3343;SDS011;1685;53.104;8.228;2024-03-17T09:01:57;11.73;;;3.27;;
3343;SDS011;1685;53.104;8.228;2024-03-17T09:04:24;10.10;;;2.75;;
3343;SDS011;1685;53.104;8.228;2024-03-17T09:06:51;10.27;;;2.80;;
3343;SDS011;1685;53.104;8.228;2024-03-17T09:09:20;14.70;;;2.80;;
3343;SDS011;1685;53.104;8.228;2024-03-17T09:11:48;5.60;;;2.20;;
3343;SDS011;1685;53.104;8.228;2024-03-17T09:14:16;10.60;;;2.20;;
3343;SDS011;1685;53.104;8.228;2024-03-17T09:16:44;7.77;;;2.70;;
3343;SDS011;1685;53.104;8.228;2024-03-17T09:19:12;4.97;;;2.10;;
3343;SDS011;1685;53.104;8.228;2024-03-17T09:21:39;9.67;;;2.40;;
3343;SDS011;1685;53.104;8.228;2024-03-17T09:24:07;11.23;;;1.90;;
3343;SDS011;1685;53.104;8.228;2024-03-17T09:26:34;6.40;;;2.27;;
3343;SDS011;1685;53.104;8.228;2024-03-17T09:29:01;3.73;;;1.57;;
3343;SDS011;1685;53.104;8.228;2024-03-17T09:31:28;8.13;;;2.60;;
3343;SDS011;1685;53.104;8.228;2024-03-17T09:34:00;3.57;;;1.93;;
3343;SDS011;1685;53.104;8.228;2024-03-17T09:36:27;10.00;;;2.30;;
3343;SDS011;1685;53.104;8.228;2024-03-17T09:38:54;9.03;;;2.10;;
3343;SDS011;1685;53.104;8.228;2024-03-17T09:41:22;6.30;;;1.73;;
3343;SDS011;1685;53.104;8.228;2024-03-17T09:43:50;8.77;;;2.53;;
3343;SDS011;1685;53.104;8.228;2024-03-17T09:46:20;13.50;;;2.03;;
3343;SDS011;1685;53.104;8.228;2024-03-17T09:48:47;6.83;;;1.97;;
3343;SDS011;1685;53.104;8.228;2024-03-17T09:51:18;3.97;;;2.13;;
3343;SDS011;1685;53.104;8.228;2024-03-17T09:53:46;5.70;;;2.10;;
3343;SDS011;1685;53.104;8.228;2024-03-17T09:56:13;7.33;;;1.80;;
3343;SDS011;1685;53.104;8.228;2024-03-17T09:58:43;11.03;;;2.07;;
3343;SDS011;1685;53.104;8.228;2024-03-17T10:01:10;4.07;;;2.20;;
3343;SDS011;1685;53.104;8.228;2024-03-17T10:03:43;8.00;;;2.70;;
3343;SDS011;1685;53.104;8.228;2024-03-17T10:06:11;5.97;;;1.93;;
3343;SDS011;1685;53.104;8.228;2024-03-17T10:08:43;7.33;;;2.40;;
3343;SDS011;1685;53.104;8.228;2024-03-17T10:11:11;5.87;;;2.07;;
3343;SDS011;1685;53.104;8.228;2024-03-17T10:13:40;4.43;;;2.80;;
3343;SDS011;1685;53.104;8.228;2024-03-17T10:16:15;11.70;;;2.50;;
3343;SDS011;1685;53.104;8.228;2024-03-17T10:18:48;7.30;;;2.57;;
3343;SDS011;1685;53.104;8.228;2024-03-17T10:21:24;8.23;;;2.50;;
3343;SDS011;1685;53.104;8.228;2024-03-17T10:24:05;21.03;;;2.37;;
3343;SDS011;1685;53.104;8.228;2024-03-17T10:26:36;5.37;;;2.73;;
3343;SDS011;1685;53.104;8.228;2024-03-17T10:29:04;9.30;;;2.50;;
3343;SDS011;1685;53.104;8.228;2024-03-17T10:31:31;5.93;;;2.40;;
3343;SDS011;1685;53.104;8.228;2024-03-17T10:34:02;9.73;;;3.43;;
3343;SDS011;1685;53.104;8.228;2024-03-17T10:36:29;6.87;;;2.33;;
3343;SDS011;1685;53.104;8.228;2024-03-17T10:38:56;9.07;;;4.60;;
3343;SDS011;1685;53.104;8.228;2024-03-17T10:41:24;4.47;;;2.43;;
3343;SDS011;1685;53.104;8.228;2024-03-17T10:43:53;8.40;;;2.80;;
3343;SDS011;1685;53.104;8.228;2024-03-17T10:46:21;7.67;;;2.80;;
3343;SDS011;1685;53.104;8.228;2024-03-17T10:48:51;4.70;;;2.67;;
3343;SDS011;1685;53.104;8.228;2024-03-17T10:51:19;8.37;;;3.00;;
3343;SDS011;1685;53.104;8.228;2024-03-17T10:53:46;10.83;;;2.70;;
3343;SDS011;1685;53.104;8.228;2024-03-17T10:56:15;8.43;;;2.63;;
3343;SDS011;1685;53.104;8.228;2024-03-17T10:58:46;8.13;;;2.83;;
3343;SDS011;1685;53.104;8.228;2024-03-17T11:01:17;9.70;;;2.97;;
3343;SDS011;1685;53.104;8.228;2024-03-17T11:03:46;10.10;;;3.30;;
3343;SDS011;1685;53.104;8.228;2024-03-17T11:06:15;7.03;;;3.77;;
3343;SDS011;1685;53.104;8.228;2024-03-17T11:08:42;7.47;;;3.70;;
3343;SDS011;1685;53.104;8.228;2024-03-17T11:11:10;10.03;;;2.67;;
3343;SDS011;1685;53.104;8.228;2024-03-17T11:13:39;15.40;;;3.50;;
3343;SDS011;1685;53.104;8.228;2024-03-17T11:16:13;10.53;;;3.57;;
3343;SDS011;1685;53.104;8.228;2024-03-17T11:18:52;7.40;;;2.80;;
3343;SDS011;1685;53.104;8.228;2024-03-17T11:21:22;8.57;;;3.40;;
3343;SDS011;1685;53.104;8.228;2024-03-17T11:24:00;8.70;;;3.70;;
3343;SDS011;1685;53.104;8.228;2024-03-17T11:26:32;8.90;;;3.50;;
3343;SDS011;1685;53.104;8.228;2024-03-17T11:28:59;6.13;;;3.23;;
3343;SDS011;1685;53.104;8.228;2024-03-17T11:31:33;12.70;;;3.90;;
3343;SDS011;1685;53.104;8.228;2024-03-17T11:36:53;9.20;;;3.40;;
3343;SDS011;1685;53.104;8.228;2024-03-17T11:39:21;8.60;;;4.10;;
3343;SDS011;1685;53.104;8.228;2024-03-17T11:42:23;4.93;;;3.83;;
3343;SDS011;1685;53.104;8.228;2024-03-17T11:45:00;9.70;;;3.53;;
3343;SDS011;1685;53.104;8.228;2024-03-17T11:47:39;7.53;;;3.83;;
3343;SDS011;1685;53.104;8.228;2024-03-17T11:50:08;8.37;;;3.47;;
3343;SDS011;1685;53.104;8.228;2024-03-17T11:52:36;10.30;;;3.30;;
3343;SDS011;1685;53.104;8.228;2024-03-17T11:55:03;9.00;;;3.33;;
3343;SDS011;1685;53.104;8.228;2024-03-17T11:57:30;7.37;;;3.17;;
3343;SDS011;1685;53.104;8.228;2024-03-17T11:59:57;8.67;;;3.97;;
3343;SDS011;1685;53.104;8.228;2024-03-17T12:02:24;7.67;;;2.80;;
3343;SDS011;1685;53.104;8.228;2024-03-17T12:04:53;5.07;;;2.77;;
3343;SDS011;1685;53.104;8.228;2024-03-17T12:07:22;5.63;;;3.13;;
3343;SDS011;1685;53.104;8.228;2024-03-17T12:09:49;5.23;;;3.40;;
3343;SDS011;1685;53.104;8.228;2024-03-17T12:12:17;8.80;;;3.80;;
3343;SDS011;1685;53.104;8.228;2024-03-17T12:14:45;10.73;;;3.33;;
3343;SDS011;1685;53.104;8.228;2024-03-17T12:17:11;11.73;;;4.00;;
3343;SDS011;1685;53.104;8.228;2024-03-17T12:19:40;7.30;;;3.30;;
3343;SDS011;1685;53.104;8.228;2024-03-17T12:22:08;10.53;;;4.67;;
3343;SDS011;1685;53.104;8.228;2024-03-17T12:24:43;10.40;;;3.33;;
3343;SDS011;1685;53.104;8.228;2024-03-17T12:27:15;8.53;;;3.23;;
3343;SDS011;1685;53.104;8.228;2024-03-17T12:29:44;9.23;;;3.37;;
3343;SDS011;1685;53.104;8.228;2024-03-17T12:32:11;9.30;;;3.40;;
3343;SDS011;1685;53.104;8.228;2024-03-17T12:34:41;13.60;;;3.40;;
3343;SDS011;1685;53.104;8.228;2024-03-17T12:37:11;10.07;;;3.57;;
3343;SDS011;1685;53.104;8.228;2024-03-17T12:39:43;11.10;;;3.00;;
3343;SDS011;1685;53.104;8.228;2024-03-17T12:42:10;6.33;;;3.17;;
3343;SDS011;1685;53.104;8.228;2024-03-17T12:44:38;12.03;;;3.17;;
3343;SDS011;1685;53.104;8.228;2024-03-17T12:47:07;8.93;;;3.97;;
3343;SDS011;1685;53.104;8.228;2024-03-17T12:49:35;8.00;;;3.53;;
3343;SDS011;1685;53.104;8.228;2024-03-17T12:52:01;12.30;;;3.80;;
3343;SDS011;1685;53.104;8.228;2024-03-17T12:54:30;11.03;;;4.03;;
3343;SDS011;1685;53.104;8.228;2024-03-17T12:57:03;7.20;;;3.70;;
3343;SDS011;1685;53.104;8.228;2024-03-17T12:59:48;11.53;;;3.90;;
3343;SDS011;1685;53.104;8.228;2024-03-17T13:02:41;7.20;;;3.60;;
3343;SDS011;1685;53.104;8.228;2024-03-17T13:05:14;13.40;;;3.57;;
3343;SDS011;1685;53.104;8.228;2024-03-17T13:07:42;7.17;;;3.93;;
3343;SDS011;1685;53.104;8.228;2024-03-17T13:10:13;10.03;;;4.10;;
3343;SDS011;1685;53.104;8.228;2024-03-17T13:12:41;6.53;;;3.80;;
3343;SDS011;1685;53.104;8.228;2024-03-17T13:15:09;6.00;;;3.67;;
3343;SDS011;1685;53.104;8.228;2024-03-17T13:17:38;7.53;;;3.40;;
3343;SDS011;1685;53.104;8.228;2024-03-17T13:20:05;9.40;;;3.73;;
3343;SDS011;1685;53.104;8.228;2024-03-17T13:22:36;13.80;;;4.43;;
3343;SDS011;1685;53.104;8.228;2024-03-17T13:25:05;5.30;;;3.30;;
3343;SDS011;1685;53.104;8.228;2024-03-17T13:27:34;7.20;;;3.90;;
3343;SDS011;1685;53.104;8.228;2024-03-17T13:30:01;13.87;;;4.37;;
3343;SDS011;1685;53.104;8.228;2024-03-17T13:32:28;7.07;;;3.90;;
3343;SDS011;1685;53.104;8.228;2024-03-17T13:34:55;9.03;;;3.23;;
3343;SDS011;1685;53.104;8.228;2024-03-17T13:37:22;8.40;;;4.10;;
3343;SDS011;1685;53.104;8.228;2024-03-17T13:39:49;10.40;;;4.47;;
3343;SDS011;1685;53.104;8.228;2024-03-17T13:42:17;4.20;;;3.30;;
3343;SDS011;1685;53.104;8.228;2024-03-17T13:44:46;6.47;;;3.83;;
3343;SDS011;1685;53.104;8.228;2024-03-17T13:47:13;8.33;;;4.23;;
3343;SDS011;1685;53.104;8.228;2024-03-17T13:49:42;10.73;;;4.77;;
3343;SDS011;1685;53.104;8.228;2024-03-17T13:52:09;5.47;;;4.67;;
3343;SDS011;1685;53.104;8.228;2024-03-17T13:54:36;9.27;;;4.83;;
3343;SDS011;1685;53.104;8.228;2024-03-17T13:57:04;10.17;;;4.70;;
3343;SDS011;1685;53.104;8.228;2024-03-17T13:59:31;7.63;;;4.50;;
3343;SDS011;1685;53.104;8.228;2024-03-17T14:02:00;7.80;;;4.50;;
3343;SDS011;1685;53.104;8.228;2024-03-17T14:04:29;7.60;;;4.00;;
3343;SDS011;1685;53.104;8.228;2024-03-17T14:06:56;7.73;;;3.80;;
3343;SDS011;1685;53.104;8.228;2024-03-17T14:09:24;10.17;;;4.40;;
3343;SDS011;1685;53.104;8.228;2024-03-17T14:11:51;7.80;;;4.07;;
3343;SDS011;1685;53.104;8.228;2024-03-17T14:14:18;8.60;;;5.37;;
3343;SDS011;1685;53.104;8.228;2024-03-17T14:16:45;7.10;;;4.40;;
3343;SDS011;1685;53.104;8.228;2024-03-17T14:19:14;7.27;;;4.50;;
3343;SDS011;1685;53.104;8.228;2024-03-17T14:21:41;8.90;;;4.40;;
3343;SDS011;1685;53.104;8.228;2024-03-17T14:24:08;8.53;;;3.70;;
3343;SDS011;1685;53.104;8.228;2024-03-17T14:26:35;6.30;;;4.23;;
3343;SDS011;1685;53.104;8.228;2024-03-17T14:29:02;14.20;;;5.27;;
3343;SDS011;1685;53.104;8.228;2024-03-17T14:31:30;10.63;;;3.80;;
3343;SDS011;1685;53.104;8.228;2024-03-17T14:33:59;21.73;;;7.80;;
3343;SDS011;1685;53.104;8.228;2024-03-17T14:36:27;6.13;;;4.07;;
3343;SDS011;1685;53.104;8.228;2024-03-17T14:38:58;8.87;;;4.40;;
3343;SDS011;1685;53.104;8.228;2024-03-17T14:41:27;9.87;;;4.70;;
3343;SDS011;1685;53.104;8.228;2024-03-17T14:43:54;8.20;;;4.43;;
3343;SDS011;1685;53.104;8.228;2024-03-17T14:46:22;12.13;;;3.90;;
3343;SDS011;1685;53.104;8.228;2024-03-17T14:48:49;5.63;;;3.80;;
3343;SDS011;1685;53.104;8.228;2024-03-17T14:51:16;9.10;;;4.60;;
3343;SDS011;1685;53.104;8.228;2024-03-17T14:53:45;8.43;;;4.10;;
3343;SDS011;1685;53.104;8.228;2024-03-17T14:56:14;5.27;;;3.80;;
3343;SDS011;1685;53.104;8.228;2024-03-17T14:58:42;7.17;;;3.70;;
3343;SDS011;1685;53.104;8.228;2024-03-17T15:01:11;7.60;;;4.00;;
3343;SDS011;1685;53.104;8.228;2024-03-17T15:03:38;5.27;;;4.43;;
3343;SDS011;1685;53.104;8.228;2024-03-17T15:06:12;5.90;;;4.30;;
3343;SDS011;1685;53.104;8.228;2024-03-17T15:08:39;4.67;;;3.60;;
3343;SDS011;1685;53.104;8.228;2024-03-17T15:11:08;4.87;;;3.90;;
3343;SDS011;1685;53.104;8.228;2024-03-17T15:13:35;9.80;;;4.73;;
3343;SDS011;1685;53.104;8.228;2024-03-17T15:16:03;5.63;;;3.90;;